Time,TemperatureF,DewpointF,PressureIn,WindDirection,WindDirectionDegrees,WindSpeedMPH,WindSpeedGustMPH,Humidity,HourlyPrecipIn,Conditions,Clouds,dailyrainin,SoftwareType,DateUTC
2013-11-20 00:06:00,26.1,19.9,30.33,North,0,0.0,-999.0,77,-99.99,,,0.00,Acu-Link.com,2013-11-20 05:06:00,
2013-11-20 00:22:00,26.1,19.9,30.33,North,0,0.0,-999.0,77,-99.99,,,0.00,Acu-Link.com,2013-11-20 05:22:00,
2013-11-20 00:37:00,25.7,19.8,30.34,North,0,0.0,-999.0,78,-99.99,,,0.00,Acu-Link.com,2013-11-20 05:37:00,
2013-11-20 00:52:00,25.5,19.6,30.34,North,0,0.0,-999.0,78,-99.99,,,0.00,Acu-Link.com,2013-11-20 05:52:00,
2013-11-20 01:08:00,25.0,19.4,30.34,North,0,0.0,-999.0,79,-99.99,,,0.00,Acu-Link.com,2013-11-20 06:08:00,
2013-11-20 01:23:00,24.8,19.5,30.35,North,0,0.0,-999.0,80,-99.99,,,0.00,Acu-Link.com,2013-11-20 06:23:00,
2013-11-20 01:38:00,24.8,19.5,30.35,North,0,0.0,-999.0,80,-99.99,,,0.00,Acu-Link.com,2013-11-20 06:38:00,
2013-11-20 01:54:00,25.0,19.7,30.35,North,0,0.0,-999.0,80,-99.99,,,0.00,Acu-Link.com,2013-11-20 06:54:00,
2013-11-20 02:09:00,25.2,19.9,30.35,North,0,0.0,-999.0,80,-99.99,,,0.00,Acu-Link.com,2013-11-20 07:09:00,
2013-11-20 02:24:00,25.0,19.7,30.37,North,0,0.0,-999.0,80,-99.99,,,0.00,Acu-Link.com,2013-11-20 07:24:00,
2013-11-20 02:40:00,25.0,19.7,30.37,North,0,0.0,-999.0,80,-99.99,,,0.00,Acu-Link.com,2013-11-20 07:40:00,
2013-11-20 02:55:00,24.8,19.5,30.37,North,0,0.0,-999.0,80,-99.99,,,0.00,Acu-Link.com,2013-11-20 07:55:00,
2013-11-20 03:10:00,25.2,19.9,30.38,North,0,0.0,-999.0,80,-99.99,,,0.00,Acu-Link.com,2013-11-20 08:10:00,
2013-11-20 03:25:00,25.7,20.7,30.38,SE,135,0.0,-999.0,81,-99.99,,,0.00,Acu-Link.com,2013-11-20 08:25:00,
2013-11-20 03:41:00,25.9,20.6,30.39,SSW,202,0.0,-999.0,80,-99.99,,,0.00,Acu-Link.com,2013-11-20 08:41:00,
2013-11-20 03:56:00,25.7,20.1,30.39,South,180,0.0,-999.0,79,-99.99,,,0.00,Acu-Link.com,2013-11-20 08:56:00,
2013-11-20 04:11:00,25.0,19.4,30.39,South,180,0.0,-999.0,79,-99.99,,,0.00,Acu-Link.com,2013-11-20 09:11:00,
2013-11-20 04:27:00,24.8,19.5,30.40,South,180,0.0,-999.0,80,-99.99,,,0.00,Acu-Link.com,2013-11-20 09:27:00,
2013-11-20 04:42:00,24.3,19.0,30.39,South,180,0.0,-999.0,80,-99.99,,,0.00,Acu-Link.com,2013-11-20 09:42:00,
2013-11-20 04:57:00,23.7,18.7,30.40,South,180,0.0,-999.0,81,-99.99,,,0.00,Acu-Link.com,2013-11-20 09:57:00,
2013-11-20 05:13:00,23.5,18.8,30.41,South,180,0.0,-999.0,82,-99.99,,,0.00,Acu-Link.com,2013-11-20 10:13:00,
2013-11-20 05:28:00,23.7,19.0,30.41,South,180,0.0,-999.0,82,-99.99,,,0.00,Acu-Link.com,2013-11-20 10:28:00,
2013-11-20 05:43:00,23.5,18.8,30.41,South,180,0.0,-999.0,82,-99.99,,,0.00,Acu-Link.com,2013-11-20 10:43:00,
2013-11-20 05:59:00,23.4,18.7,30.41,South,180,0.0,-999.0,82,-99.99,,,0.00,Acu-Link.com,2013-11-20 10:59:00,
2013-11-20 06:14:00,23.0,18.3,30.42,South,180,0.0,-999.0,82,-99.99,,,0.00,Acu-Link.com,2013-11-20 11:14:00,
2013-11-20 06:29:00,23.4,19.0,30.42,South,180,0.0,-999.0,83,-99.99,,,0.00,Acu-Link.com,2013-11-20 11:29:00,
2013-11-20 06:44:00,24.3,19.9,30.42,South,180,0.0,-999.0,83,-99.99,,,0.00,Acu-Link.com,2013-11-20 11:44:00,
2013-11-20 07:00:00,24.3,19.6,30.43,South,180,2.7,-999.0,82,-99.99,,,0.00,Acu-Link.com,2013-11-20 12:00:00,
2013-11-20 07:15:00,23.9,18.9,30.44,South,180,0.0,-999.0,81,-99.99,,,0.00,Acu-Link.com,2013-11-20 12:15:00,
2013-11-20 07:30:00,24.3,19.6,30.44,West,270,0.0,-999.0,82,-99.99,,,0.00,Acu-Link.com,2013-11-20 12:30:00,
2013-11-20 07:45:00,24.8,19.8,30.44,South,180,0.0,-999.0,81,-99.99,,,0.00,Acu-Link.com,2013-11-20 12:45:00,
2013-11-20 08:01:00,25.5,20.2,30.45,South,180,0.0,-999.0,80,-99.99,,,0.00,Acu-Link.com,2013-11-20 13:01:00,
2013-11-20 08:16:00,26.4,20.8,30.45,South,180,0.0,-999.0,79,-99.99,,,0.00,Acu-Link.com,2013-11-20 13:16:00,
2013-11-20 08:31:00,27.3,21.1,30.46,North,0,2.7,-999.0,77,-99.99,,,0.00,Acu-Link.com,2013-11-20 13:31:00,
2013-11-20 08:47:00,28.4,21.5,30.47,North,0,0.0,-999.0,75,-99.99,,,0.00,Acu-Link.com,2013-11-20 13:47:00,
2013-11-20 09:02:00,29.5,21.9,30.46,North,0,0.0,-999.0,73,-99.99,,,0.00,Acu-Link.com,2013-11-20 14:02:00,
2013-11-20 09:17:00,30.9,21.9,30.47,North,0,0.0,-999.0,69,-99.99,,,0.00,Acu-Link.com,2013-11-20 14:17:00,
2013-11-20 09:33:00,31.8,22.8,30.47,North,0,0.0,-999.0,69,-99.99,,,0.00,Acu-Link.com,2013-11-20 14:33:00,
2013-11-20 09:48:00,33.1,23.4,30.48,North,0,0.0,-999.0,67,-99.99,,,0.00,Acu-Link.com,2013-11-20 14:48:00,
2013-11-20 10:03:00,34.7,22.3,30.47,ESE,112,2.7,-999.0,60,-99.99,,,0.00,Acu-Link.com,2013-11-20 15:03:00,
2013-11-20 10:18:00,36.1,21.5,30.48,ESE,112,3.2,-999.0,55,-99.99,,,0.00,Acu-Link.com,2013-11-20 15:18:00,
2013-11-20 10:33:00,37.4,20.9,30.47,ESE,112,0.0,-999.0,51,-99.99,,,0.00,Acu-Link.com,2013-11-20 15:33:00,
2013-11-20 10:49:00,37.9,20.0,30.47,ESE,112,3.2,-999.0,48,-99.99,,,0.00,Acu-Link.com,2013-11-20 15:49:00,
2013-11-20 11:04:00,38.5,18.5,30.46,ESE,112,1.7,-999.0,44,-99.99,,,0.00,Acu-Link.com,2013-11-20 16:04:00,
2013-11-20 11:19:00,39.7,19.6,30.46,NNW,337,0.0,-999.0,44,-99.99,,,0.00,Acu-Link.com,2013-11-20 16:19:00,
2013-11-20 11:34:00,41.0,18.6,30.45,ESE,112,1.1,-999.0,40,-99.99,,,0.00,Acu-Link.com,2013-11-20 16:34:00,
2013-11-20 11:50:00,43.2,18.7,30.44,ESE,112,0.0,-999.0,37,-99.99,,,0.00,Acu-Link.com,2013-11-20 16:50:00,
2013-11-20 12:05:00,45.3,16.5,30.44,ESE,112,0.0,-999.0,31,-99.99,,,0.00,Acu-Link.com,2013-11-20 17:05:00,
2013-11-20 12:20:00,45.3,14.1,30.44,ESE,112,0.0,-999.0,28,-99.99,,,0.00,Acu-Link.com,2013-11-20 17:20:00,
2013-11-20 12:36:00,46.8,1.6,30.43,ESE,112,3.2,-999.0,15,-99.99,,,0.00,Acu-Link.com,2013-11-20 17:36:00,
2013-11-20 12:51:00,46.4,1.3,30.43,ESE,112,2.2,-999.0,15,-99.99,,,0.00,Acu-Link.com,2013-11-20 17:51:00,
2013-11-20 13:06:00,47.1,9.2,30.42,ESE,112,3.2,-999.0,21,-99.99,,,0.00,Acu-Link.com,2013-11-20 18:06:00,
2013-11-20 13:21:00,46.8,18.5,30.42,ESE,112,2.7,-999.0,32,-99.99,,,0.00,Acu-Link.com,2013-11-20 18:21:00,
2013-11-20 13:36:00,46.9,14.7,30.42,ESE,112,1.1,-999.0,27,-99.99,,,0.00,Acu-Link.com,2013-11-20 18:36:00,
2013-11-20 13:51:00,47.7,10.7,30.41,SE,135,0.0,-999.0,22,-99.99,,,0.00,Acu-Link.com,2013-11-20 18:51:00,
2013-11-20 14:07:00,49.1,3.5,30.41,ESE,112,2.7,-999.0,15,-99.99,,,0.00,Acu-Link.com,2013-11-20 19:07:00,
2013-11-20 14:22:00,47.7,0.9,30.41,ESE,112,2.7,-999.0,14,-99.99,,,0.00,Acu-Link.com,2013-11-20 19:22:00,
2013-11-20 14:37:00,46.8,4.3,30.40,ESE,112,3.7,-999.0,17,-99.99,,,0.00,Acu-Link.com,2013-11-20 19:37:00,
2013-11-20 14:52:00,46.2,5.1,30.40,ESE,112,3.2,-999.0,18,-99.99,,,0.00,Acu-Link.com,2013-11-20 19:52:00,
2013-11-20 15:08:00,45.7,5.8,30.39,ESE,112,2.7,-999.0,19,-99.99,,,0.00,Acu-Link.com,2013-11-20 20:08:00,
2013-11-20 15:23:00,45.5,6.8,30.40,ESE,112,0.0,-999.0,20,-99.99,,,0.00,Acu-Link.com,2013-11-20 20:23:00,
2013-11-20 15:38:00,45.0,8.5,30.39,ESE,112,0.0,-999.0,22,-99.99,,,0.00,Acu-Link.com,2013-11-20 20:38:00,
2013-11-20 15:54:00,44.6,9.1,30.39,ESE,112,0.0,-999.0,23,-99.99,,,0.00,Acu-Link.com,2013-11-20 20:54:00,
2013-11-20 16:09:00,44.1,11.4,30.39,ESE,112,0.0,-999.0,26,-99.99,,,0.00,Acu-Link.com,2013-11-20 21:09:00,
2013-11-20 16:24:00,42.8,12.0,30.40,ESE,112,0.0,-999.0,28,-99.99,,,0.00,Acu-Link.com,2013-11-20 21:24:00,
2013-11-20 16:40:00,41.2,12.1,30.40,ESE,112,0.0,-999.0,30,-99.99,,,0.00,Acu-Link.com,2013-11-20 21:40:00,
2013-11-20 16:55:00,39.4,13.4,30.40,ESE,112,0.0,-999.0,34,-99.99,,,0.00,Acu-Link.com,2013-11-20 21:55:00,
2013-11-20 17:10:00,38.1,15.4,30.40,ESE,112,0.0,-999.0,39,-99.99,,,0.00,Acu-Link.com,2013-11-20 22:10:00,
2013-11-20 17:26:00,36.9,17.0,30.40,ESE,112,0.0,-999.0,44,-99.99,,,0.00,Acu-Link.com,2013-11-20 22:26:00,
2013-11-20 17:41:00,35.4,15.7,30.40,ESE,112,0.0,-999.0,44,-99.99,,,0.00,Acu-Link.com,2013-11-20 22:41:00,
2013-11-20 17:56:00,34.2,17.1,30.41,ESE,112,0.0,-999.0,49,-99.99,,,0.00,Acu-Link.com,2013-11-20 22:56:00,
2013-11-20 18:11:00,33.6,17.9,30.41,ESE,112,0.0,-999.0,52,-99.99,,,0.00,Acu-Link.com,2013-11-20 23:11:00,
2013-11-20 18:26:00,32.5,17.7,30.42,ESE,112,0.0,-999.0,54,-99.99,,,0.00,Acu-Link.com,2013-11-20 23:26:00,
2013-11-20 18:42:00,32.0,17.3,30.42,ESE,112,0.0,-999.0,54,-99.99,,,0.00,Acu-Link.com,2013-11-20 23:42:00,
2013-11-20 18:57:00,31.5,17.2,30.43,ESE,112,0.0,-999.0,55,-99.99,,,0.00,Acu-Link.com,2013-11-20 23:57:00,
2013-11-20 19:12:00,30.7,17.3,30.43,ESE,112,0.0,-999.0,57,-99.99,,,0.00,Acu-Link.com,2013-11-21 00:12:00,
2013-11-20 19:27:00,29.8,16.9,30.45,ESE,112,0.0,-999.0,58,-99.99,,,0.00,Acu-Link.com,2013-11-21 00:27:00,
2013-11-20 19:43:00,29.1,17.4,30.44,ESE,112,0.0,-999.0,61,-99.99,,,0.00,Acu-Link.com,2013-11-21 00:43:00,
2013-11-20 19:58:00,28.4,17.4,30.44,ESE,112,0.0,-999.0,63,-99.99,,,0.00,Acu-Link.com,2013-11-21 00:58:00,
2013-11-20 20:13:00,27.7,16.8,30.44,ESE,112,0.0,-999.0,63,-99.99,,,0.00,Acu-Link.com,2013-11-21 01:13:00,
2013-11-20 20:28:00,27.1,16.9,30.44,ESE,112,0.0,-999.0,65,-99.99,,,0.00,Acu-Link.com,2013-11-21 01:28:00,
2013-11-20 20:44:00,27.0,17.2,30.44,ESE,112,0.0,-999.0,66,-99.99,,,0.00,Acu-Link.com,2013-11-21 01:44:00,
2013-11-20 20:59:00,26.4,17.6,30.45,ESE,112,0.0,-999.0,69,-99.99,,,0.00,Acu-Link.com,2013-11-21 01:59:00,
2013-11-20 21:14:00,26.4,17.3,30.44,ESE,112,0.0,-999.0,68,-99.99,,,0.00,Acu-Link.com,2013-11-21 02:14:00,
2013-11-20 21:29:00,26.1,17.3,30.44,ESE,112,0.0,-999.0,69,-99.99,,,0.00,Acu-Link.com,2013-11-21 02:29:00,
2013-11-20 21:45:00,26.1,17.3,30.45,ESE,112,0.0,-999.0,69,-99.99,,,0.00,Acu-Link.com,2013-11-21 02:45:00,
2013-11-20 22:00:00,26.1,17.7,30.44,ESE,112,0.0,-999.0,70,-99.99,,,0.00,Acu-Link.com,2013-11-21 03:00:00,
2013-11-20 22:15:00,26.2,18.1,30.45,ESE,112,0.0,-999.0,71,-99.99,,,0.00,Acu-Link.com,2013-11-21 03:15:00,
2013-11-20 22:31:00,26.1,17.7,30.45,ESE,112,0.0,-999.0,70,-99.99,,,0.00,Acu-Link.com,2013-11-21 03:31:00,
2013-11-20 22:46:00,25.9,17.2,30.45,ESE,112,0.0,-999.0,69,-99.99,,,0.00,Acu-Link.com,2013-11-21 03:46:00,
2013-11-20 23:01:00,25.7,17.0,30.45,ESE,112,0.0,-999.0,69,-99.99,,,0.00,Acu-Link.com,2013-11-21 04:01:00,
2013-11-20 23:16:00,25.5,16.4,30.46,ESE,112,0.0,-999.0,68,-99.99,,,0.00,Acu-Link.com,2013-11-21 04:16:00,
2013-11-20 23:31:00,25.5,17.1,30.46,ESE,112,0.0,-999.0,70,-99.99,,,0.00,Acu-Link.com,2013-11-21 04:31:00,
2013-11-20 23:47:00,25.3,17.9,30.47,ESE,112,0.0,-999.0,73,-99.99,,,0.00,Acu-Link.com,2013-11-21 04:47:00,